Tropical Cyclones
[Index]
Main Index Home Page Stock Weather Photos Extreme Storms Discussion Storm News and Storm Chasing Reports Tropical Cyclones / Hurricanes / Typhoons Weather Data and Links Wild Fires / Bushfires Weather Observation Techniques Weather Picture Catalogue Tornado Pictures and Reports Stock Video Footage and DVDs for sale
Season 2004-2005 Tropical Cyclone RAE Track Map
Season 2004-2005 Summaries (Operational Data): [AU] [SIO] [SPAC] [SH]
<<- Previous TC | 2004-2005 Season | Next TC ->>

click for intensity scale information  Lat/long Grid: Show Hide

 Date Labels: Show Hide

Operational Tropical Cyclone Data : JTWC Advisories

Name: RAE
Number: 0521

27 Feb 2005 21:00 UTC to 08 Mar 2005 00:00 UTC

    date/time    lat    long     hPa   cat  kts
2005-02-27 21   11.0   175.0    1003                     
2005-02-28 21   11.5   178.5    1003                     
2005-03-01 06   12.0   178.0W   1003                     
2005-03-01 21   14.5   176.5W   1003                     
2005-03-02 06   14.5   180.0    1000                     
2005-03-02 21   14.0   180.0    1000                     
2005-03-03 06   15.0   179.0W   1000                     
2005-03-03 18   14.0   176.0W   1000         00          
2005-03-04 06   15.0   176.0W   1002         00          
2005-03-04 17   16.0   167.4W    998         30          
2005-03-04 21   16.8   167.3W    999         30          
2005-03-05 00   17.0   167.2W    997         30          
2005-03-05 06   18.0   166.3W    997         30          
2005-03-05 12   18.9   165.7W    997         30          
2005-03-05 18   20.5   164.7W    997         30          
2005-03-05 21   21.0   164.5W    990    1    35          
2005-03-06 00   21.7   163.9W    990    1    40          
2005-03-06 06   23.0   162.7W    995    1    35          
2005-03-06 12   23.9   161.4W    997         30          
2005-03-06 18   24.2   158.3W    998         30          
2005-03-07 00   23.0   159.5W    998         30          
2005-03-07 06   23.0   159.0W    998         30          
2005-03-07 12   24.0   157.0W    998    1    40          
2005-03-07 18   23.0   159.0W   1002    1    40          
2005-03-08 00   23.4   158.5W   1002    1    40          
Winds are 10-min average.

Tropical cyclone tracks developed by Michael Bath using operational warnings and advisories and Google Maps.


[Australian Severe Weather index] [Copyright Notice] [Email Contacts] [Search This Site] [Privacy Policy]
Document: tropical_cyclone_rae.htm Updated: 28 May 2013